createdAt,value
2022-12-06T00:02:10.315Z,96983.81
2022-12-06T00:04:36.838Z,96971.78
2022-12-06T00:07:03.199Z,96968.47
2022-12-06T00:09:30.951Z,96965.19
2022-12-06T00:11:57.370Z,96959.75
2022-12-06T00:14:24.387Z,96967.91
2022-12-06T00:16:51.809Z,96964.94
2022-12-06T00:19:19.852Z,96966.59
2022-12-06T00:21:47.388Z,96972.03
2022-12-06T00:24:15.489Z,96972.22
2022-12-06T00:26:43.194Z,96969.31
2022-12-06T00:29:27.870Z,96966.91
2022-12-06T00:31:54.307Z,96963.78
2022-12-06T00:34:21.121Z,96959.31
2022-12-06T00:36:48.792Z,96965.19
2022-12-06T00:39:16.164Z,96973.00
2022-12-06T00:41:43.068Z,96971.34
2022-12-06T00:44:10.036Z,96976.09
2022-12-06T00:46:36.898Z,96973.19
2022-12-06T00:49:04.588Z,96981.53
2022-12-06T00:51:32.274Z,96977.34
2022-12-06T00:53:59.000Z,96975.38
2022-12-06T00:56:25.816Z,96975.94
2022-12-06T00:58:52.186Z,96974.94
2022-12-06T01:01:22.734Z,96975.00
2022-12-06T01:03:53.392Z,96966.56
2022-12-06T01:06:21.389Z,96961.78
2022-12-06T01:08:47.809Z,96956.38
2022-12-06T01:11:14.949Z,96952.88
2022-12-06T01:13:41.434Z,96947.75
2022-12-06T01:16:09.330Z,96947.19
2022-12-06T01:18:35.923Z,96943.44
2022-12-06T01:21:10.238Z,96940.09
2022-12-06T01:23:36.715Z,96939.44
2022-12-06T01:26:04.319Z,96938.97
2022-12-06T01:28:30.692Z,96930.44
2022-12-06T01:30:58.126Z,96929.75
2022-12-06T01:33:24.519Z,96926.25
2022-12-06T01:35:51.127Z,96924.94
2022-12-06T01:38:17.529Z,96921.88
2022-12-06T01:40:46.049Z,96918.31
2022-12-06T01:43:31.156Z,96918.41
2022-12-06T01:45:59.338Z,96924.13
2022-12-06T01:48:26.513Z,96911.81
2022-12-06T01:50:55.150Z,96922.22
2022-12-06T01:53:25.729Z,96917.25
2022-12-06T01:55:53.126Z,96920.56
2022-12-06T01:58:23.922Z,96918.41
2022-12-06T02:00:50.628Z,96918.41
2022-12-06T02:03:19.949Z,96920.94
2022-12-06T02:05:46.270Z,96910.84
2022-12-06T02:08:13.952Z,96913.97
2022-12-06T02:10:40.483Z,96920.56
2022-12-06T02:13:09.958Z,96917.53
2022-12-06T02:15:59.455Z,96920.66
2022-12-06T02:18:28.624Z,96916.88
2022-12-06T02:21:04.536Z,96915.75
2022-12-06T02:23:57.011Z,96911.59
2022-12-06T02:26:29.322Z,96909.09
2022-12-06T02:29:05.129Z,96901.50
2022-12-06T02:31:42.917Z,96907.38
2022-12-06T02:34:16.589Z,96908.59
2022-12-06T02:36:54.900Z,96909.00
2022-12-06T02:39:35.071Z,96909.03
2022-12-06T02:42:06.562Z,96910.38
2022-12-06T02:44:39.464Z,96906.50
2022-12-06T02:47:07.744Z,96907.91
2022-12-06T02:49:35.595Z,96909.34
2022-12-06T02:52:02.842Z,96911.03
2022-12-06T02:54:29.921Z,96914.72
2022-12-06T02:56:58.044Z,96922.88
2022-12-06T02:59:25.416Z,96920.50
2022-12-06T03:01:57.126Z,96911.59
2022-12-06T03:04:46.490Z,96913.44
2022-12-06T03:07:13.287Z,96916.84
2022-12-06T03:09:49.673Z,96916.03
2022-12-06T03:12:16.094Z,96920.25
2022-12-06T03:14:53.673Z,96909.31
2022-12-06T03:17:33.760Z,96911.47
2022-12-06T03:20:04.999Z,96905.56
2022-12-06T03:22:40.009Z,96905.19
2022-12-06T03:25:07.993Z,96899.53
2022-12-06T03:27:35.012Z,96893.28
2022-12-06T03:30:05.222Z,96894.09
2022-12-06T03:32:33.758Z,96885.94
2022-12-06T03:35:04.072Z,96892.22
2022-12-06T03:37:32.448Z,96883.38
2022-12-06T03:40:05.749Z,96886.31
2022-12-06T03:42:32.731Z,96886.31
2022-12-06T03:45:02.730Z,96887.38
2022-12-06T03:47:33.437Z,96892.38
2022-12-06T03:50:03.079Z,96888.97
2022-12-06T03:52:30.078Z,96891.75
2022-12-06T03:54:56.440Z,96884.78
2022-12-06T03:57:22.861Z,96885.66
2022-12-06T03:59:49.293Z,96882.94
2022-12-06T04:02:16.718Z,96879.72
2022-12-06T04:04:43.287Z,96880.09
2022-12-06T04:07:09.913Z,96883.47
2022-12-06T04:09:54.776Z,96882.06
2022-12-06T04:12:42.116Z,96881.97
2022-12-06T04:15:09.504Z,96887.50
2022-12-06T04:17:56.359Z,96881.63
2022-12-06T04:20:25.610Z,96884.47
2022-12-06T04:23:03.955Z,96885.03
2022-12-06T04:25:36.011Z,96873.50
2022-12-06T04:28:22.080Z,96870.91
2022-12-06T04:31:07.434Z,96879.91
2022-12-06T04:33:53.294Z,96867.31
2022-12-06T04:36:38.411Z,96865.41
2022-12-06T04:39:05.400Z,96869.97
2022-12-06T04:41:50.612Z,96869.72
2022-12-06T04:44:17.001Z,96861.72
2022-12-06T04:46:43.486Z,96860.91
2022-12-06T04:49:09.883Z,96852.75
2022-12-06T04:51:36.311Z,96859.25
2022-12-06T04:54:02.697Z,96851.91
2022-12-06T04:56:30.521Z,96847.09
2022-12-06T04:58:57.129Z,96845.91
2022-12-06T05:01:26.456Z,96841.16
2022-12-06T05:03:52.882Z,96834.22
2022-12-06T05:06:19.295Z,96837.66
2022-12-06T05:08:45.604Z,96844.00
2022-12-06T05:11:12.134Z,96840.94
2022-12-06T05:13:38.560Z,96848.19
2022-12-06T05:16:06.089Z,96850.78
2022-12-06T05:18:33.760Z,96844.56
2022-12-06T05:21:06.545Z,96842.66
2022-12-06T05:23:33.354Z,96841.19
2022-12-06T05:26:04.208Z,96837.28
2022-12-06T05:28:31.307Z,96829.31
2022-12-06T05:30:57.819Z,96833.78
2022-12-06T05:33:24.830Z,96837.28
2022-12-06T05:35:51.179Z,96834.00
2022-12-06T05:38:17.616Z,96832.50
2022-12-06T05:40:49.304Z,96841.19
2022-12-06T05:43:16.183Z,96843.34
2022-12-06T05:45:43.610Z,96836.63
2022-12-06T05:48:10.070Z,96837.34
2022-12-06T05:50:36.768Z,96841.47
2022-12-06T05:53:03.255Z,96836.59
2022-12-06T05:55:29.708Z,96832.19
2022-12-06T05:57:56.104Z,96832.41
2022-12-06T06:00:22.548Z,96828.28
2022-12-06T06:02:50.022Z,96834.63
2022-12-06T06:05:16.657Z,96826.91
2022-12-06T06:07:43.281Z,96831.34
2022-12-06T06:10:11.035Z,96831.63
2022-12-06T06:12:37.432Z,96826.38
2022-12-06T06:15:07.107Z,96812.19
2022-12-06T06:17:34.205Z,96818.09
2022-12-06T06:20:05.508Z,96823.66
2022-12-06T06:22:35.806Z,96825.56
2022-12-06T06:25:02.605Z,96828.72
2022-12-06T06:27:29.121Z,96825.91
2022-12-06T06:29:55.456Z,96827.53
2022-12-06T06:32:21.870Z,96833.09
2022-12-06T06:34:48.227Z,96839.69
2022-12-06T06:37:14.551Z,96836.59
2022-12-06T06:39:40.951Z,96834.16
2022-12-06T06:42:07.276Z,96834.25
2022-12-06T06:44:33.601Z,96844.66
2022-12-06T06:46:59.932Z,96832.72
2022-12-06T06:49:26.415Z,96835.88
2022-12-06T06:51:52.738Z,96841.63
2022-12-06T06:54:19.138Z,96837.34
2022-12-06T06:56:45.591Z,96832.00
2022-12-06T06:59:12.015Z,96833.41
2022-12-06T07:01:38.609Z,96834.75
2022-12-06T07:04:05.210Z,96829.69
2022-12-06T07:06:31.650Z,96827.47
2022-12-06T07:08:57.975Z,96830.06
2022-12-06T07:11:24.318Z,96835.75
2022-12-06T07:13:52.790Z,96833.25
2022-12-06T07:16:20.430Z,96836.00
2022-12-06T07:18:47.619Z,96827.97
2022-12-06T07:21:15.507Z,96832.53
2022-12-06T07:23:41.827Z,96838.09
2022-12-06T07:26:12.152Z,96826.56
2022-12-06T07:28:40.222Z,96837.03
2022-12-06T07:31:11.014Z,96838.13
2022-12-06T07:33:37.843Z,96838.44
2022-12-06T07:36:12.050Z,96837.91
2022-12-06T07:38:39.607Z,96838.13
2022-12-06T07:41:29.978Z,96840.41
2022-12-06T07:44:15.774Z,96837.09
2022-12-06T07:46:42.903Z,96840.06
2022-12-06T07:49:09.914Z,96844.63
2022-12-06T07:51:36.699Z,96835.66
2022-12-06T07:54:03.283Z,96846.59
2022-12-06T07:56:29.628Z,96843.78
2022-12-06T07:58:56.054Z,96846.78
2022-12-06T08:01:23.461Z,96844.00
2022-12-06T08:03:50.286Z,96846.34
2022-12-06T08:06:17.014Z,96835.00
2022-12-06T08:08:43.352Z,96838.78
2022-12-06T08:11:09.847Z,96834.81
2022-12-06T08:13:37.241Z,96839.69
2022-12-06T08:16:09.876Z,96832.66
2022-12-06T08:18:37.399Z,96829.09
2022-12-06T08:21:04.012Z,96821.50
2022-12-06T08:23:34.156Z,96825.56
2022-12-06T08:26:05.235Z,96819.00
2022-12-06T08:28:32.348Z,96817.72
2022-12-06T08:31:03.026Z,96820.13
2022-12-06T08:33:31.942Z,96827.78
2022-12-06T08:35:58.269Z,96828.06
2022-12-06T08:38:24.679Z,96828.22
2022-12-06T08:40:52.121Z,96812.19
2022-12-06T08:43:18.477Z,96821.91
2022-12-06T08:45:49.702Z,96819.66
2022-12-06T08:48:16.034Z,96821.19
2022-12-06T08:50:42.348Z,96821.91
2022-12-06T08:53:08.671Z,96815.22
2022-12-06T08:55:35.046Z,96830.91
2022-12-06T08:58:01.480Z,96827.09
2022-12-06T09:00:27.960Z,96829.25
2022-12-06T09:02:54.356Z,96817.59
2022-12-06T09:05:20.718Z,96822.09
2022-12-06T09:07:47.287Z,96817.19
2022-12-06T09:10:13.935Z,96828.50
2022-12-06T09:12:41.506Z,96826.53
2022-12-06T09:15:08.075Z,96825.94
2022-12-06T09:17:34.406Z,96823.41
2022-12-06T09:20:05.806Z,96822.53
2022-12-06T09:22:32.553Z,96817.25
2022-12-06T09:24:58.866Z,96820.88
2022-12-06T09:27:25.333Z,96820.38
2022-12-06T09:29:51.706Z,96829.25
2022-12-06T09:32:18.031Z,96827.59
2022-12-06T09:34:44.490Z,96825.13
2022-12-06T09:37:12.200Z,96831.84
2022-12-06T09:39:46.273Z,96824.38
2022-12-06T09:42:28.884Z,96829.13
2022-12-06T09:45:10.763Z,96820.31
2022-12-06T09:47:58.500Z,96825.63
2022-12-06T09:50:33.912Z,96821.13
2022-12-06T09:53:06.841Z,96820.63
2022-12-06T09:55:52.173Z,96819.09
2022-12-06T09:58:36.185Z,96807.84
2022-12-06T10:01:02.615Z,96804.16
2022-12-06T10:03:29.007Z,96803.28
2022-12-06T10:06:07.721Z,96808.84
2022-12-06T10:08:53.065Z,96805.88
2022-12-06T10:11:40.110Z,96799.78
2022-12-06T10:14:06.424Z,96800.38
2022-12-06T10:16:35.934Z,96792.28
2022-12-06T10:19:11.542Z,96803.59
2022-12-06T10:21:45.629Z,96800.09
2022-12-06T10:24:27.436Z,96799.50
2022-12-06T10:26:55.228Z,96805.03
2022-12-06T10:29:54.107Z,96805.59
2022-12-06T10:32:26.459Z,96798.81
2022-12-06T10:34:57.150Z,96798.72
2022-12-06T10:37:32.529Z,96793.78
2022-12-06T10:40:13.662Z,96795.13
2022-12-06T10:42:48.878Z,96800.66
2022-12-06T10:45:37.500Z,96793.34
2022-12-06T10:48:09.582Z,96781.59
2022-12-06T10:50:36.604Z,96783.41
2022-12-06T10:53:11.440Z,96782.78
2022-12-06T10:55:53.952Z,96779.91
2022-12-06T10:58:39.005Z,96781.28
2022-12-06T11:01:08.867Z,96784.16
2022-12-06T11:03:39.646Z,96782.94
2022-12-06T11:06:15.183Z,96779.91
2022-12-06T11:08:50.679Z,96778.28
2022-12-06T11:11:20.507Z,96774.59
2022-12-06T11:13:53.459Z,96769.63
2022-12-06T11:16:19.815Z,96768.13
2022-12-06T11:18:47.556Z,96764.91
2022-12-06T11:21:13.878Z,96769.44
2022-12-06T11:23:45.629Z,96757.91
2022-12-06T11:26:12.016Z,96763.72
2022-12-06T11:28:38.334Z,96760.34
2022-12-06T11:31:26.709Z,96758.63
2022-12-06T11:33:53.391Z,96757.72
2022-12-06T11:36:20.211Z,96753.13
2022-12-06T11:38:46.817Z,96749.69
2022-12-06T11:41:17.748Z,96754.88
2022-12-06T11:43:44.066Z,96740.06
2022-12-06T11:46:12.076Z,96744.31
2022-12-06T11:48:38.645Z,96741.28
2022-12-06T11:51:07.301Z,96744.06
2022-12-06T11:53:41.842Z,96737.66
2022-12-06T11:56:28.488Z,96739.53
2022-12-06T11:58:54.796Z,96737.94
2022-12-06T12:01:36.258Z,96737.56
2022-12-06T12:04:22.275Z,96733.16
2022-12-06T12:06:50.369Z,96735.03
2022-12-06T12:09:19.155Z,96735.25
2022-12-06T12:11:53.348Z,96724.66
2022-12-06T12:14:25.292Z,96736.47
2022-12-06T12:16:56.322Z,96731.06
2022-12-06T12:19:37.954Z,96732.16
2022-12-06T12:22:16.264Z,96723.94
2022-12-06T12:27:39.723Z,96719.25
2022-12-06T12:30:15.515Z,96717.66
2022-12-06T12:32:42.602Z,96714.63
2022-12-06T12:35:28.059Z,96711.50
2022-12-06T12:37:57.015Z,96706.56
2022-12-06T12:40:28.165Z,96706.00
2022-12-06T12:43:17.759Z,96709.06
2022-12-06T12:46:03.277Z,96706.75
2022-12-06T12:48:30.023Z,96708.53
2022-12-06T12:50:57.645Z,96704.00
2022-12-06T12:53:37.653Z,96708.56
2022-12-06T12:56:12.929Z,96711.50
2022-12-06T12:58:40.098Z,96707.84
2022-12-06T13:01:13.054Z,96712.00
2022-12-06T13:03:54.635Z,96712.88
2022-12-06T13:06:27.317Z,96714.59
2022-12-06T13:08:56.149Z,96714.06
2022-12-06T13:11:22.891Z,96712.97
2022-12-06T13:13:52.089Z,96709.56
2022-12-06T13:16:23.092Z,96712.31
2022-12-06T13:18:55.190Z,96699.50
2022-12-06T13:21:23.446Z,96704.00
2022-12-06T13:23:52.598Z,96701.94
2022-12-06T13:26:24.131Z,96705.09
2022-12-06T13:28:52.224Z,96697.66
2022-12-06T13:31:21.086Z,96698.22
2022-12-06T13:34:07.896Z,96696.88
2022-12-06T13:36:34.740Z,96699.56
2022-12-06T13:39:19.924Z,96698.72
2022-12-06T13:42:12.019Z,96695.19
2022-12-06T13:44:51.914Z,96689.41
2022-12-06T13:47:27.116Z,96690.97
2022-12-06T13:50:01.178Z,96692.19
2022-12-06T13:52:42.808Z,96685.38
2022-12-06T13:55:24.270Z,96693.03
2022-12-06T13:57:59.609Z,96697.66
2022-12-06T14:00:29.299Z,96694.78
2022-12-06T14:02:56.874Z,96696.69
2022-12-06T14:05:42.010Z,96704.00
2022-12-06T14:08:12.485Z,96703.69
2022-12-06T14:10:39.045Z,96703.03
2022-12-06T14:13:05.427Z,96695.63
2022-12-06T14:15:40.131Z,96704.50
2022-12-06T14:18:12.694Z,96709.16
2022-12-06T14:20:41.427Z,96705.13
2022-12-06T14:23:22.155Z,96709.53
2022-12-06T14:25:48.573Z,96707.75
2022-12-06T14:28:16.049Z,96707.47
2022-12-06T14:30:44.421Z,96697.22
2022-12-06T14:33:22.551Z,96704.16
2022-12-06T14:35:53.440Z,96694.63
2022-12-06T14:38:30.929Z,96700.69
2022-12-06T14:41:16.452Z,96700.41
2022-12-06T14:43:46.800Z,96699.00
2022-12-06T14:46:14.785Z,96697.66
2022-12-06T14:48:59.775Z,96694.09
2022-12-06T14:51:33.460Z,96693.81
2022-12-06T14:54:16.133Z,96704.06
2022-12-06T14:56:44.534Z,96699.56
2022-12-06T14:59:11.529Z,96703.78
2022-12-06T15:01:48.838Z,96705.00
2022-12-06T15:04:44.597Z,96699.81
2022-12-06T15:07:28.884Z,96711.03
2022-12-06T15:09:55.383Z,96707.72
2022-12-06T15:12:42.652Z,96697.63
2022-12-06T15:15:27.714Z,96699.25
2022-12-06T15:17:54.122Z,96703.06
2022-12-06T15:20:20.588Z,96696.66
2022-12-06T15:22:46.936Z,96692.94
2022-12-06T15:25:14.712Z,96695.28
2022-12-06T15:27:41.027Z,96689.94
2022-12-06T15:30:09.185Z,96692.38
2022-12-06T15:32:35.616Z,96704.16
2022-12-06T15:35:03.059Z,96698.25
2022-12-06T15:37:38.563Z,96705.91
2022-12-06T15:40:06.306Z,96702.47
2022-12-06T15:42:32.659Z,96707.81
2022-12-06T15:44:58.995Z,96707.72
2022-12-06T15:47:25.302Z,96700.59
2022-12-06T15:49:52.391Z,96705.47
2022-12-06T15:52:21.770Z,96701.69
2022-12-06T15:54:48.115Z,96698.91
2022-12-06T15:57:14.938Z,96702.63
2022-12-06T15:59:41.544Z,96707.25
2022-12-06T16:02:15.648Z,96710.13
2022-12-06T16:04:43.111Z,96717.50
2022-12-06T16:07:13.307Z,96710.94
2022-12-06T16:09:39.830Z,96715.50
2022-12-06T16:12:06.367Z,96723.25
2022-12-06T16:14:32.753Z,96716.09
2022-12-06T16:16:59.197Z,96719.94
2022-12-06T16:19:45.564Z,96717.97
2022-12-06T16:22:11.878Z,96723.09
2022-12-06T16:24:38.208Z,96726.03
2022-12-06T16:27:04.533Z,96726.44
2022-12-06T16:29:30.913Z,96723.31
2022-12-06T16:31:57.268Z,96730.19
2022-12-06T16:34:24.974Z,96729.09
2022-12-06T16:37:04.297Z,96728.59
2022-12-06T16:39:33.395Z,96732.13
2022-12-06T16:41:59.815Z,96730.75
2022-12-06T16:44:26.566Z,96731.84
2022-12-06T16:46:53.225Z,96739.50
2022-12-06T16:52:07.904Z,96740.50
2022-12-06T16:54:41.021Z,96735.53
2022-12-06T16:57:08.185Z,96746.13
2022-12-06T16:59:35.181Z,96741.50
2022-12-06T17:02:01.756Z,96741.56
2022-12-06T17:04:30.678Z,96735.22
2022-12-06T17:06:57.087Z,96744.09
2022-12-06T17:09:23.449Z,96750.31
2022-12-06T17:12:06.953Z,96745.44
2022-12-06T17:14:35.904Z,96745.94
2022-12-06T17:17:04.150Z,96741.63
2022-12-06T17:19:31.841Z,96742.09
2022-12-06T17:21:58.392Z,96740.41
2022-12-06T17:24:26.278Z,96751.31
2022-12-06T17:26:56.349Z,96743.22
2022-12-06T17:29:23.594Z,96752.28
2022-12-06T17:31:50.496Z,96749.03
2022-12-06T17:34:17.112Z,96745.44
2022-12-06T17:36:43.448Z,96749.03
2022-12-06T17:39:10.519Z,96744.91
2022-12-06T17:41:55.640Z,96745.03
2022-12-06T17:44:21.988Z,96743.53
2022-12-06T17:46:48.359Z,96751.31
2022-12-06T17:49:18.310Z,96752.81
2022-12-06T17:51:45.945Z,96754.25
2022-12-06T17:54:13.130Z,96754.59
2022-12-06T17:56:40.887Z,96749.06
2022-12-06T17:59:09.224Z,96750.69
2022-12-06T18:02:06.289Z,96760.94
2022-12-06T18:04:23.463Z,96758.69
2022-12-06T18:06:50.195Z,96766.13
2022-12-06T18:09:16.724Z,96760.28
2022-12-06T18:11:43.657Z,96763.34
2022-12-06T18:14:11.381Z,96751.31
2022-12-06T18:16:38.611Z,96760.81
2022-12-06T18:19:08.741Z,96762.88
2022-12-06T18:21:38.865Z,96765.88
2022-12-06T18:24:21.598Z,96760.81
2022-12-06T18:26:48.928Z,96763.97
2022-12-06T18:29:16.666Z,96761.28
2022-12-06T18:31:43.185Z,96760.09
2022-12-06T18:34:12.040Z,96758.53
2022-12-06T18:36:38.579Z,96763.13
2022-12-06T18:39:10.899Z,96763.53
2022-12-06T18:41:40.503Z,96758.25
2022-12-06T18:44:08.288Z,96763.97
2022-12-06T18:46:36.340Z,96756.94
2022-12-06T18:49:02.661Z,96766.38
2022-12-06T18:51:32.352Z,96758.91
2022-12-06T18:53:59.257Z,96763.66
2022-12-06T18:56:26.648Z,96755.50
2022-12-06T18:58:53.289Z,96758.78
2022-12-06T19:01:21.559Z,96760.63
2022-12-06T19:03:50.695Z,96753.91
2022-12-06T19:06:18.532Z,96751.22
2022-12-06T19:08:45.798Z,96757.69
2022-12-06T19:11:20.195Z,96752.28
2022-12-06T19:14:00.337Z,96754.66
2022-12-06T19:16:33.115Z,96751.63
2022-12-06T19:19:00.235Z,96753.97
2022-12-06T19:21:27.964Z,96757.38
2022-12-06T19:23:55.296Z,96759.22
2022-12-06T19:26:24.390Z,96757.06
2022-12-06T19:28:54.227Z,96756.59
2022-12-06T19:31:23.301Z,96750.31
2022-12-06T19:33:50.469Z,96757.69
2022-12-06T19:36:19.020Z,96750.16
2022-12-06T19:38:45.884Z,96750.16
2022-12-06T19:41:16.388Z,96756.75
2022-12-06T19:44:01.650Z,96753.34
2022-12-06T19:46:28.857Z,96753.91
2022-12-06T19:48:56.500Z,96753.06
2022-12-06T19:51:23.612Z,96754.66
2022-12-06T19:53:50.176Z,96763.72
2022-12-06T19:56:17.055Z,96757.19
2022-12-06T19:58:44.540Z,96756.75
2022-12-06T20:01:13.427Z,96757.03
2022-12-06T20:03:39.821Z,96752.75
2022-12-06T20:06:07.702Z,96760.53
2022-12-06T20:08:34.830Z,96760.72
2022-12-06T20:11:05.503Z,96766.88
2022-12-06T20:13:32.213Z,96767.44
2022-12-06T20:16:02.215Z,96769.06
2022-12-06T20:18:29.503Z,96766.88
2022-12-06T20:20:58.060Z,96773.66
2022-12-06T20:23:24.822Z,96766.38
2022-12-06T20:25:56.653Z,96767.19
2022-12-06T20:28:23.049Z,96771.94
2022-12-06T20:30:49.870Z,96774.16
2022-12-06T20:33:16.480Z,96778.09
2022-12-06T20:35:42.815Z,96781.56
2022-12-06T20:38:09.153Z,96779.00
2022-12-06T20:40:35.917Z,96779.28
2022-12-06T20:43:04.329Z,96766.00
2022-12-06T20:45:31.302Z,96771.66
2022-12-06T20:47:58.071Z,96774.16
2022-12-06T20:50:24.436Z,96769.66
2022-12-06T20:52:50.744Z,96760.69
2022-12-06T20:55:17.194Z,96771.56
2022-12-06T20:57:43.577Z,96772.72
2022-12-06T21:00:11.618Z,96774.59
2022-12-06T21:02:38.345Z,96762.88
2022-12-06T21:05:04.999Z,96764.59
2022-12-06T21:07:31.442Z,96762.53
2022-12-06T21:09:57.777Z,96764.97
2022-12-06T21:12:27.520Z,96762.22
2022-12-06T21:14:53.929Z,96766.69
2022-12-06T21:17:20.388Z,96765.94
2022-12-06T21:19:46.740Z,96761.88
2022-12-06T21:22:13.060Z,96756.25
2022-12-06T21:24:39.933Z,96767.56
2022-12-06T21:27:13.379Z,96762.53
2022-12-06T21:29:42.649Z,96766.09
2022-12-06T21:32:09.416Z,96769.16
2022-12-06T21:34:51.775Z,96761.94
2022-12-06T21:37:28.198Z,96766.56
2022-12-06T21:39:54.665Z,96766.03
2022-12-06T21:42:21.660Z,96760.81
2022-12-06T21:44:48.632Z,96766.44
2022-12-06T21:47:15.698Z,96766.88
2022-12-06T21:49:42.314Z,96765.16
2022-12-06T21:52:09.486Z,96770.00
2022-12-06T21:54:36.277Z,96772.59
2022-12-06T21:57:02.610Z,96776.19
2022-12-06T21:59:28.968Z,96776.94
2022-12-06T22:01:55.353Z,96766.00
2022-12-06T22:04:22.098Z,96766.81
2022-12-06T22:06:48.617Z,96767.88
2022-12-06T22:09:14.932Z,96764.44
2022-12-06T22:11:41.506Z,96767.28
2022-12-06T22:14:09.906Z,96765.38
2022-12-06T22:16:36.311Z,96764.91
2022-12-06T22:19:04.974Z,96768.03
2022-12-06T22:21:33.443Z,96774.13
2022-12-06T22:24:01.288Z,96769.72
2022-12-06T22:26:28.806Z,96773.72
2022-12-06T22:29:01.254Z,96766.63
2022-12-06T22:31:28.829Z,96767.19
2022-12-06T22:33:56.791Z,96767.94
2022-12-06T22:36:26.132Z,96765.22
2022-12-06T22:39:02.347Z,96763.28
2022-12-06T22:41:29.011Z,96756.19
2022-12-06T22:43:56.357Z,96759.16
2022-12-06T22:46:23.353Z,96762.53
2022-12-06T22:48:49.976Z,96768.13
2022-12-06T22:51:20.787Z,96766.41
2022-12-06T22:53:48.635Z,96759.63
2022-12-06T22:56:15.567Z,96750.00
2022-12-06T22:58:42.119Z,96754.22
2022-12-06T23:01:15.921Z,96755.44
2022-12-06T23:03:43.510Z,96756.72
2022-12-06T23:06:10.959Z,96755.38
2022-12-06T23:08:37.648Z,96753.09
2022-12-06T23:11:08.242Z,96750.56
2022-12-06T23:13:36.618Z,96758.06
2022-12-06T23:16:05.152Z,96762.94
2022-12-06T23:18:31.570Z,96751.66
2022-12-06T23:21:04.276Z,96757.44
2022-12-06T23:23:31.780Z,96744.50
2022-12-06T23:26:02.734Z,96741.53
2022-12-06T23:28:29.362Z,96739.31
2022-12-06T23:30:55.702Z,96742.53
2022-12-06T23:33:22.970Z,96741.69
2022-12-06T23:35:49.501Z,96736.38
2022-12-06T23:38:15.811Z,96741.75
2022-12-06T23:40:42.156Z,96729.94
2022-12-06T23:43:08.476Z,96731.38
2022-12-06T23:45:39.089Z,96737.97
2022-12-06T23:48:05.585Z,96736.38
2022-12-06T23:50:31.926Z,96740.22
2022-12-06T23:53:00.328Z,96740.31
2022-12-06T23:55:26.860Z,96730.09
2022-12-06T23:57:53.327Z,96724.56
